sensor_id;sensor_type;location;lat;lon;timestamp;P1;durP1;ratioP1;P2;durP2;ratioP2
75649;SDS011;64245;51.282;22.494;2023-07-20T00:01:14;6.25;;;3.35;;
75649;SDS011;64245;51.282;22.494;2023-07-20T00:03:40;6.30;;;3.30;;
75649;SDS011;64245;51.282;22.494;2023-07-20T00:06:06;5.55;;;3.60;;
75649;SDS011;64245;51.282;22.494;2023-07-20T00:08:32;7.18;;;3.50;;
75649;SDS011;64245;51.282;22.494;2023-07-20T00:10:57;6.28;;;3.88;;
75649;SDS011;64245;51.282;22.494;2023-07-20T00:13:23;6.22;;;3.80;;
75649;SDS011;64245;51.282;22.494;2023-07-20T00:15:49;5.63;;;3.30;;
75649;SDS011;64245;51.282;22.494;2023-07-20T00:18:16;6.28;;;4.07;;
75649;SDS011;64245;51.282;22.494;2023-07-20T00:20:41;6.25;;;3.28;;
75649;SDS011;64245;51.282;22.494;2023-07-20T00:23:07;4.55;;;3.25;;
75649;SDS011;64245;51.282;22.494;2023-07-20T00:25:33;6.88;;;3.80;;
75649;SDS011;64245;51.282;22.494;2023-07-20T00:27:59;5.90;;;3.70;;
75649;SDS011;64245;51.282;22.494;2023-07-20T00:30:24;5.55;;;3.80;;
75649;SDS011;64245;51.282;22.494;2023-07-20T00:32:50;6.07;;;3.72;;
75649;SDS011;64245;51.282;22.494;2023-07-20T00:35:16;4.85;;;3.72;;
75649;SDS011;64245;51.282;22.494;2023-07-20T00:37:42;7.55;;;3.65;;
75649;SDS011;64245;51.282;22.494;2023-07-20T00:40:07;5.72;;;3.90;;
75649;SDS011;64245;51.282;22.494;2023-07-20T00:42:33;6.68;;;3.88;;
75649;SDS011;64245;51.282;22.494;2023-07-20T00:44:59;7.00;;;3.53;;
75649;SDS011;64245;51.282;22.494;2023-07-20T00:47:26;5.00;;;3.58;;
75649;SDS011;64245;51.282;22.494;2023-07-20T00:49:52;4.68;;;3.30;;
75649;SDS011;64245;51.282;22.494;2023-07-20T00:52:20;6.80;;;3.97;;
75649;SDS011;64245;51.282;22.494;2023-07-20T00:54:48;6.15;;;3.55;;
75649;SDS011;64245;51.282;22.494;2023-07-20T00:57:15;7.47;;;4.15;;
75649;SDS011;64245;51.282;22.494;2023-07-20T00:59:41;6.40;;;3.85;;
75649;SDS011;64245;51.282;22.494;2023-07-20T01:02:07;6.57;;;3.78;;
75649;SDS011;64245;51.282;22.494;2023-07-20T01:04:33;4.88;;;3.30;;
75649;SDS011;64245;51.282;22.494;2023-07-20T01:09:44;10.50;;;4.57;;
75649;SDS011;64245;51.282;22.494;2023-07-20T01:12:27;8.27;;;4.20;;
75649;SDS011;64245;51.282;22.494;2023-07-20T01:15:00;9.48;;;3.65;;
75649;SDS011;64245;51.282;22.494;2023-07-20T01:17:27;7.03;;;3.85;;
75649;SDS011;64245;51.282;22.494;2023-07-20T01:19:52;5.95;;;3.50;;
75649;SDS011;64245;51.282;22.494;2023-07-20T01:33:41;6.85;;;3.65;;
75649;SDS011;64245;51.282;22.494;2023-07-20T01:36:09;5.68;;;4.43;;
75649;SDS011;64245;51.282;22.494;2023-07-20T01:38:36;8.68;;;4.63;;
75649;SDS011;64245;51.282;22.494;2023-07-20T01:41:02;6.90;;;4.43;;
75649;SDS011;64245;51.282;22.494;2023-07-20T01:43:29;7.53;;;4.43;;
75649;SDS011;64245;51.282;22.494;2023-07-20T01:45:54;6.82;;;4.03;;
75649;SDS011;64245;51.282;22.494;2023-07-20T01:48:20;8.43;;;4.53;;
75649;SDS011;64245;51.282;22.494;2023-07-20T01:50:46;7.13;;;4.80;;
75649;SDS011;64245;51.282;22.494;2023-07-20T01:53:12;6.60;;;4.53;;
75649;SDS011;64245;51.282;22.494;2023-07-20T01:55:37;8.32;;;5.00;;
75649;SDS011;64245;51.282;22.494;2023-07-20T01:58:03;8.10;;;4.38;;
75649;SDS011;64245;51.282;22.494;2023-07-20T02:00:29;8.40;;;4.72;;
75649;SDS011;64245;51.282;22.494;2023-07-20T02:02:55;6.95;;;4.35;;
75649;SDS011;64245;51.282;22.494;2023-07-20T02:05:20;6.80;;;4.30;;
75649;SDS011;64245;51.282;22.494;2023-07-20T02:07:46;9.10;;;3.97;;
75649;SDS011;64245;51.282;22.494;2023-07-20T02:10:12;5.50;;;3.97;;
75649;SDS011;64245;51.282;22.494;2023-07-20T02:12:38;6.97;;;4.15;;
75649;SDS011;64245;51.282;22.494;2023-07-20T02:15:04;6.25;;;4.20;;
75649;SDS011;64245;51.282;22.494;2023-07-20T02:17:30;7.75;;;4.47;;
75649;SDS011;64245;51.282;22.494;2023-07-20T02:19:56;10.65;;;4.63;;
75649;SDS011;64245;51.282;22.494;2023-07-20T02:22:23;6.22;;;4.60;;
75649;SDS011;64245;51.282;22.494;2023-07-20T02:24:48;7.55;;;4.32;;
75649;SDS011;64245;51.282;22.494;2023-07-20T02:27:16;6.88;;;4.03;;
75649;SDS011;64245;51.282;22.494;2023-07-20T02:29:42;6.82;;;4.38;;
75649;SDS011;64245;51.282;22.494;2023-07-20T02:32:08;5.75;;;4.15;;
75649;SDS011;64245;51.282;22.494;2023-07-20T02:34:35;7.30;;;4.32;;
75649;SDS011;64245;51.282;22.494;2023-07-20T02:37:01;7.18;;;4.35;;
75649;SDS011;64245;51.282;22.494;2023-07-20T02:39:27;5.40;;;4.32;;
75649;SDS011;64245;51.282;22.494;2023-07-20T02:41:53;9.88;;;4.82;;
75649;SDS011;64245;51.282;22.494;2023-07-20T02:44:19;7.60;;;4.80;;
75649;SDS011;64245;51.282;22.494;2023-07-20T02:46:45;7.32;;;4.57;;
75649;SDS011;64245;51.282;22.494;2023-07-20T02:49:11;5.57;;;3.67;;
75649;SDS011;64245;51.282;22.494;2023-07-20T02:51:37;6.20;;;3.88;;
75649;SDS011;64245;51.282;22.494;2023-07-20T02:54:02;8.45;;;4.70;;
75649;SDS011;64245;51.282;22.494;2023-07-20T02:56:29;6.82;;;4.97;;
75649;SDS011;64245;51.282;22.494;2023-07-20T02:58:54;4.88;;;3.63;;
75649;SDS011;64245;51.282;22.494;2023-07-20T03:01:20;5.88;;;3.88;;
75649;SDS011;64245;51.282;22.494;2023-07-20T03:03:46;6.55;;;4.30;;
75649;SDS011;64245;51.282;22.494;2023-07-20T03:06:15;6.95;;;3.70;;
75649;SDS011;64245;51.282;22.494;2023-07-20T03:08:42;6.45;;;3.70;;
75649;SDS011;64245;51.282;22.494;2023-07-20T03:11:13;7.43;;;3.83;;
75649;SDS011;64245;51.282;22.494;2023-07-20T03:13:41;6.78;;;4.07;;
75649;SDS011;64245;51.282;22.494;2023-07-20T03:16:08;6.63;;;4.15;;
75649;SDS011;64245;51.282;22.494;2023-07-20T03:18:39;6.30;;;4.20;;
75649;SDS011;64245;51.282;22.494;2023-07-20T03:21:05;6.38;;;3.90;;
75649;SDS011;64245;51.282;22.494;2023-07-20T03:23:32;6.80;;;3.90;;
75649;SDS011;64245;51.282;22.494;2023-07-20T03:25:58;6.60;;;3.88;;
75649;SDS011;64245;51.282;22.494;2023-07-20T03:28:24;5.55;;;3.55;;
75649;SDS011;64245;51.282;22.494;2023-07-20T03:30:56;8.70;;;3.90;;
75649;SDS011;64245;51.282;22.494;2023-07-20T03:33:24;6.30;;;4.00;;
75649;SDS011;64245;51.282;22.494;2023-07-20T03:35:51;7.60;;;3.97;;
75649;SDS011;64245;51.282;22.494;2023-07-20T03:38:17;6.75;;;3.67;;
75649;SDS011;64245;51.282;22.494;2023-07-20T03:40:49;6.55;;;3.70;;
75649;SDS011;64245;51.282;22.494;2023-07-20T03:43:16;6.55;;;4.45;;
75649;SDS011;64245;51.282;22.494;2023-07-20T03:45:43;7.50;;;3.80;;
75649;SDS011;64245;51.282;22.494;2023-07-20T03:48:09;6.15;;;3.60;;
75649;SDS011;64245;51.282;22.494;2023-07-20T03:50:34;5.85;;;3.33;;
75649;SDS011;64245;51.282;22.494;2023-07-20T03:53:00;6.28;;;3.38;;
75649;SDS011;64245;51.282;22.494;2023-07-20T03:55:26;5.97;;;4.20;;
75649;SDS011;64245;51.282;22.494;2023-07-20T03:57:51;5.75;;;4.10;;
75649;SDS011;64245;51.282;22.494;2023-07-20T04:00:17;5.25;;;3.38;;
75649;SDS011;64245;51.282;22.494;2023-07-20T04:02:43;5.65;;;4.03;;
75649;SDS011;64245;51.282;22.494;2023-07-20T04:05:09;6.50;;;3.97;;
75649;SDS011;64245;51.282;22.494;2023-07-20T04:07:35;4.72;;;3.72;;
75649;SDS011;64245;51.282;22.494;2023-07-20T04:10:01;5.05;;;3.45;;
75649;SDS011;64245;51.282;22.494;2023-07-20T04:12:26;6.38;;;4.43;;
75649;SDS011;64245;51.282;22.494;2023-07-20T04:14:52;6.25;;;4.25;;
75649;SDS011;64245;51.282;22.494;2023-07-20T04:17:18;5.95;;;3.53;;
75649;SDS011;64245;51.282;22.494;2023-07-20T04:19:44;5.70;;;3.90;;
75649;SDS011;64245;51.282;22.494;2023-07-20T04:22:10;6.95;;;4.15;;
75649;SDS011;64245;51.282;22.494;2023-07-20T04:24:35;7.00;;;4.70;;
75649;SDS011;64245;51.282;22.494;2023-07-20T04:27:03;6.60;;;4.63;;
75649;SDS011;64245;51.282;22.494;2023-07-20T04:29:29;7.18;;;4.05;;
75649;SDS011;64245;51.282;22.494;2023-07-20T04:31:55;5.45;;;3.90;;
75649;SDS011;64245;51.282;22.494;2023-07-20T04:34:20;9.25;;;5.03;;
75649;SDS011;64245;51.282;22.494;2023-07-20T04:36:46;8.57;;;5.13;;
75649;SDS011;64245;51.282;22.494;2023-07-20T04:39:12;7.00;;;4.47;;
75649;SDS011;64245;51.282;22.494;2023-07-20T04:41:37;9.02;;;5.30;;
75649;SDS011;64245;51.282;22.494;2023-07-20T04:44:03;8.73;;;5.40;;
75649;SDS011;64245;51.282;22.494;2023-07-20T04:46:29;8.25;;;4.22;;
75649;SDS011;64245;51.282;22.494;2023-07-20T04:48:55;7.38;;;4.70;;
75649;SDS011;64245;51.282;22.494;2023-07-20T04:51:20;9.93;;;4.97;;
75649;SDS011;64245;51.282;22.494;2023-07-20T04:53:46;6.72;;;4.50;;
75649;SDS011;64245;51.282;22.494;2023-07-20T04:56:12;7.88;;;5.35;;
75649;SDS011;64245;51.282;22.494;2023-07-20T04:58:39;9.00;;;5.20;;
75649;SDS011;64245;51.282;22.494;2023-07-20T05:01:04;10.82;;;6.82;;
75649;SDS011;64245;51.282;22.494;2023-07-20T05:03:30;9.55;;;5.65;;
75649;SDS011;64245;51.282;22.494;2023-07-20T05:05:56;9.13;;;5.10;;
75649;SDS011;64245;51.282;22.494;2023-07-20T05:08:22;10.75;;;6.20;;
75649;SDS011;64245;51.282;22.494;2023-07-20T05:10:48;9.80;;;6.13;;
75649;SDS011;64245;51.282;22.494;2023-07-20T05:13:14;10.32;;;6.53;;
75649;SDS011;64245;51.282;22.494;2023-07-20T05:15:40;12.75;;;7.47;;
75649;SDS011;64245;51.282;22.494;2023-07-20T05:18:05;13.15;;;8.43;;
75649;SDS011;64245;51.282;22.494;2023-07-20T05:20:31;13.75;;;6.97;;
75649;SDS011;64245;51.282;22.494;2023-07-20T05:22:59;12.18;;;7.28;;
75649;SDS011;64245;51.282;22.494;2023-07-20T05:25:25;11.93;;;7.18;;
75649;SDS011;64245;51.282;22.494;2023-07-20T05:27:51;16.45;;;8.25;;
75649;SDS011;64245;51.282;22.494;2023-07-20T05:30:17;11.63;;;7.95;;
75649;SDS011;64245;51.282;22.494;2023-07-20T05:32:44;11.93;;;7.68;;
75649;SDS011;64245;51.282;22.494;2023-07-20T05:35:19;13.43;;;8.32;;
75649;SDS011;64245;51.282;22.494;2023-07-20T05:37:45;12.45;;;8.10;;
75649;SDS011;64245;51.282;22.494;2023-07-20T05:40:11;13.30;;;7.75;;
75649;SDS011;64245;51.282;22.494;2023-07-20T05:42:38;12.02;;;7.20;;
75649;SDS011;64245;51.282;22.494;2023-07-20T05:45:04;12.45;;;7.88;;
75649;SDS011;64245;51.282;22.494;2023-07-20T05:47:30;9.95;;;7.15;;
75649;SDS011;64245;51.282;22.494;2023-07-20T05:49:57;12.57;;;7.55;;
75649;SDS011;64245;51.282;22.494;2023-07-20T05:52:23;12.07;;;7.70;;
75649;SDS011;64245;51.282;22.494;2023-07-20T05:54:48;13.15;;;8.80;;
75649;SDS011;64245;51.282;22.494;2023-07-20T05:57:14;18.63;;;10.18;;
75649;SDS011;64245;51.282;22.494;2023-07-20T05:59:40;15.10;;;8.70;;
75649;SDS011;64245;51.282;22.494;2023-07-20T06:02:09;13.80;;;9.18;;
75649;SDS011;64245;51.282;22.494;2023-07-20T06:04:39;13.85;;;8.30;;
75649;SDS011;64245;51.282;22.494;2023-07-20T06:07:05;14.63;;;8.40;;
75649;SDS011;64245;51.282;22.494;2023-07-20T06:09:32;12.20;;;7.95;;
75649;SDS011;64245;51.282;22.494;2023-07-20T06:11:58;10.27;;;6.68;;
75649;SDS011;64245;51.282;22.494;2023-07-20T06:14:24;11.25;;;7.43;;
75649;SDS011;64245;51.282;22.494;2023-07-20T06:16:50;9.80;;;6.45;;
75649;SDS011;64245;51.282;22.494;2023-07-20T06:19:15;9.07;;;5.40;;
75649;SDS011;64245;51.282;22.494;2023-07-20T06:21:41;7.03;;;4.53;;
75649;SDS011;64245;51.282;22.494;2023-07-20T06:24:07;7.63;;;5.13;;
75649;SDS011;64245;51.282;22.494;2023-07-20T06:26:33;7.32;;;4.68;;
75649;SDS011;64245;51.282;22.494;2023-07-20T06:29:04;7.10;;;4.50;;
75649;SDS011;64245;51.282;22.494;2023-07-20T06:31:32;7.03;;;4.72;;
75649;SDS011;64245;51.282;22.494;2023-07-20T06:33:58;8.70;;;4.13;;
75649;SDS011;64245;51.282;22.494;2023-07-20T06:36:24;6.70;;;4.68;;
75649;SDS011;64245;51.282;22.494;2023-07-20T06:38:51;5.28;;;3.88;;
75649;SDS011;64245;51.282;22.494;2023-07-20T06:41:17;5.28;;;3.92;;
75649;SDS011;64245;51.282;22.494;2023-07-20T06:43:44;5.40;;;4.50;;
75649;SDS011;64245;51.282;22.494;2023-07-20T06:46:10;5.03;;;3.78;;
75649;SDS011;64245;51.282;22.494;2023-07-20T06:48:35;5.35;;;3.42;;
75649;SDS011;64245;51.282;22.494;2023-07-20T06:51:01;7.25;;;4.07;;
75649;SDS011;64245;51.282;22.494;2023-07-20T06:53:28;6.35;;;3.88;;
75649;SDS011;64245;51.282;22.494;2023-07-20T06:55:54;6.32;;;3.60;;
75649;SDS011;64245;51.282;22.494;2023-07-20T06:58:22;4.78;;;3.25;;
75649;SDS011;64245;51.282;22.494;2023-07-20T07:00:49;5.47;;;3.60;;
75649;SDS011;64245;51.282;22.494;2023-07-20T07:03:14;5.97;;;4.40;;
75649;SDS011;64245;51.282;22.494;2023-07-20T07:05:40;5.63;;;3.88;;
75649;SDS011;64245;51.282;22.494;2023-07-20T07:08:07;4.75;;;3.83;;
75649;SDS011;64245;51.282;22.494;2023-07-20T07:10:34;6.00;;;3.45;;
75649;SDS011;64245;51.282;22.494;2023-07-20T07:13:01;6.03;;;3.17;;
75649;SDS011;64245;51.282;22.494;2023-07-20T07:15:27;6.05;;;3.58;;
75649;SDS011;64245;51.282;22.494;2023-07-20T07:17:53;8.00;;;3.55;;
75649;SDS011;64245;51.282;22.494;2023-07-20T07:20:19;6.85;;;3.88;;
75649;SDS011;64245;51.282;22.494;2023-07-20T07:22:44;4.22;;;3.40;;
75649;SDS011;64245;51.282;22.494;2023-07-20T07:25:10;3.88;;;3.47;;
75649;SDS011;64245;51.282;22.494;2023-07-20T07:27:36;6.90;;;3.88;;
75649;SDS011;64245;51.282;22.494;2023-07-20T07:30:03;4.47;;;3.42;;
75649;SDS011;64245;51.282;22.494;2023-07-20T07:32:28;6.60;;;4.30;;
75649;SDS011;64245;51.282;22.494;2023-07-20T07:34:54;4.43;;;3.50;;
75649;SDS011;64245;51.282;22.494;2023-07-20T07:37:20;4.72;;;3.67;;
75649;SDS011;64245;51.282;22.494;2023-07-20T07:39:46;7.65;;;4.28;;
75649;SDS011;64245;51.282;22.494;2023-07-20T07:42:12;5.53;;;3.60;;
75649;SDS011;64245;51.282;22.494;2023-07-20T07:44:38;6.55;;;3.85;;
75649;SDS011;64245;51.282;22.494;2023-07-20T07:47:04;5.20;;;3.83;;
75649;SDS011;64245;51.282;22.494;2023-07-20T07:49:30;5.47;;;3.47;;
75649;SDS011;64245;51.282;22.494;2023-07-20T07:51:56;6.85;;;3.63;;
75649;SDS011;64245;51.282;22.494;2023-07-20T07:54:22;4.93;;;3.72;;
75649;SDS011;64245;51.282;22.494;2023-07-20T07:56:48;4.75;;;3.42;;
75649;SDS011;64245;51.282;22.494;2023-07-20T07:59:14;4.55;;;3.90;;
75649;SDS011;64245;51.282;22.494;2023-07-20T08:01:39;7.70;;;4.32;;
75649;SDS011;64245;51.282;22.494;2023-07-20T08:04:05;6.43;;;3.70;;
75649;SDS011;64245;51.282;22.494;2023-07-20T08:06:31;8.02;;;4.00;;
75649;SDS011;64245;51.282;22.494;2023-07-20T08:08:57;5.65;;;4.13;;
75649;SDS011;64245;51.282;22.494;2023-07-20T08:11:23;5.40;;;3.90;;
75649;SDS011;64245;51.282;22.494;2023-07-20T08:13:49;7.70;;;4.90;;
75649;SDS011;64245;51.282;22.494;2023-07-20T08:16:15;6.63;;;3.97;;
75649;SDS011;64245;51.282;22.494;2023-07-20T08:18:40;4.93;;;3.85;;
75649;SDS011;64245;51.282;22.494;2023-07-20T08:21:06;6.30;;;4.10;;
75649;SDS011;64245;51.282;22.494;2023-07-20T08:23:32;6.93;;;3.75;;
75649;SDS011;64245;51.282;22.494;2023-07-20T08:25:58;5.22;;;3.55;;
75649;SDS011;64245;51.282;22.494;2023-07-20T08:28:24;4.75;;;3.78;;
75649;SDS011;64245;51.282;22.494;2023-07-20T08:30:51;6.43;;;3.55;;
75649;SDS011;64245;51.282;22.494;2023-07-20T08:33:17;5.93;;;3.42;;
75649;SDS011;64245;51.282;22.494;2023-07-20T08:35:45;6.28;;;3.53;;
75649;SDS011;64245;51.282;22.494;2023-07-20T08:38:11;4.72;;;3.17;;
75649;SDS011;64245;51.282;22.494;2023-07-20T08:40:47;3.92;;;2.85;;
75649;SDS011;64245;51.282;22.494;2023-07-20T08:43:13;5.40;;;2.80;;
75649;SDS011;64245;51.282;22.494;2023-07-20T08:45:45;3.92;;;2.70;;
75649;SDS011;64245;51.282;22.494;2023-07-20T08:48:14;5.05;;;3.30;;
75649;SDS011;64245;51.282;22.494;2023-07-20T08:50:40;5.07;;;3.10;;
75649;SDS011;64245;51.282;22.494;2023-07-20T08:53:07;5.45;;;3.10;;
75649;SDS011;64245;51.282;22.494;2023-07-20T08:55:33;3.50;;;3.17;;
75649;SDS011;64245;51.282;22.494;2023-07-20T08:58:00;5.38;;;2.97;;
75649;SDS011;64245;51.282;22.494;2023-07-20T09:00:28;5.43;;;2.80;;
75649;SDS011;64245;51.282;22.494;2023-07-20T09:02:55;3.90;;;3.00;;
75649;SDS011;64245;51.282;22.494;2023-07-20T09:05:23;4.53;;;2.88;;
75649;SDS011;64245;51.282;22.494;2023-07-20T09:07:51;4.40;;;2.47;;
75649;SDS011;64245;51.282;22.494;2023-07-20T09:10:19;5.50;;;2.72;;
75649;SDS011;64245;51.282;22.494;2023-07-20T09:12:46;4.88;;;2.85;;
75649;SDS011;64245;51.282;22.494;2023-07-20T09:15:12;3.05;;;2.45;;
75649;SDS011;64245;51.282;22.494;2023-07-20T09:17:38;6.40;;;3.28;;
75649;SDS011;64245;51.282;22.494;2023-07-20T09:20:04;5.53;;;2.38;;
75649;SDS011;64245;51.282;22.494;2023-07-20T09:22:33;2.88;;;2.25;;
75649;SDS011;64245;51.282;22.494;2023-07-20T09:24:59;4.57;;;2.90;;
75649;SDS011;64245;51.282;22.494;2023-07-20T09:27:38;2.72;;;2.22;;
75649;SDS011;64245;51.282;22.494;2023-07-20T09:30:05;4.65;;;1.83;;
75649;SDS011;64245;51.282;22.494;2023-07-20T09:35:03;3.95;;;2.00;;
75649;SDS011;64245;51.282;22.494;2023-07-20T09:37:29;2.72;;;1.70;;
75649;SDS011;64245;51.282;22.494;2023-07-20T09:39:58;4.07;;;2.13;;
75649;SDS011;64245;51.282;22.494;2023-07-20T09:42:25;5.18;;;2.63;;
75649;SDS011;64245;51.282;22.494;2023-07-20T09:44:52;3.15;;;2.40;;
75649;SDS011;64245;51.282;22.494;2023-07-20T09:47:22;3.58;;;2.03;;
75649;SDS011;64245;51.282;22.494;2023-07-20T09:49:48;3.88;;;2.45;;
75649;SDS011;64245;51.282;22.494;2023-07-20T09:52:14;3.45;;;2.28;;
75649;SDS011;64245;51.282;22.494;2023-07-20T09:54:41;4.93;;;2.20;;
75649;SDS011;64245;51.282;22.494;2023-07-20T09:57:11;2.70;;;1.73;;
75649;SDS011;64245;51.282;22.494;2023-07-20T09:59:39;2.50;;;1.60;;
75649;SDS011;64245;51.282;22.494;2023-07-20T10:02:07;2.92;;;1.92;;
75649;SDS011;64245;51.282;22.494;2023-07-20T10:04:39;2.90;;;1.63;;
75649;SDS011;64245;51.282;22.494;2023-07-20T10:07:08;2.65;;;1.63;;
75649;SDS011;64245;51.282;22.494;2023-07-20T10:09:37;2.35;;;1.60;;
75649;SDS011;64245;51.282;22.494;2023-07-20T10:12:05;3.70;;;2.20;;
75649;SDS011;64245;51.282;22.494;2023-07-20T10:14:32;3.08;;;1.55;;
75649;SDS011;64245;51.282;22.494;2023-07-20T10:17:06;2.20;;;1.83;;
75649;SDS011;64245;51.282;22.494;2023-07-20T10:19:42;2.63;;;2.30;;
75649;SDS011;64245;51.282;22.494;2023-07-20T10:22:18;3.10;;;1.80;;
75649;SDS011;64245;51.282;22.494;2023-07-20T10:24:48;3.80;;;1.67;;
75649;SDS011;64245;51.282;22.494;2023-07-20T10:27:15;4.05;;;1.85;;
75649;SDS011;64245;51.282;22.494;2023-07-20T10:29:41;4.47;;;2.30;;
75649;SDS011;64245;51.282;22.494;2023-07-20T10:32:08;2.72;;;2.03;;
75649;SDS011;64245;51.282;22.494;2023-07-20T10:34:37;4.50;;;2.35;;
75649;SDS011;64245;51.282;22.494;2023-07-20T10:37:03;4.30;;;3.33;;
75649;SDS011;64245;51.282;22.494;2023-07-20T10:39:32;6.05;;;3.88;;
75649;SDS011;64245;51.282;22.494;2023-07-20T10:42:03;8.90;;;4.22;;
75649;SDS011;64245;51.282;22.494;2023-07-20T10:44:32;6.07;;;3.70;;
75649;SDS011;64245;51.282;22.494;2023-07-20T10:46:59;7.32;;;4.38;;
75649;SDS011;64245;51.282;22.494;2023-07-20T10:49:26;10.95;;;6.65;;
75649;SDS011;64245;51.282;22.494;2023-07-20T10:51:56;12.98;;;7.28;;
75649;SDS011;64245;51.282;22.494;2023-07-20T10:56:52;13.73;;;7.93;;
75649;SDS011;64245;51.282;22.494;2023-07-20T10:59:36;9.43;;;6.47;;
75649;SDS011;64245;51.282;22.494;2023-07-20T11:02:07;9.05;;;6.45;;
75649;SDS011;64245;51.282;22.494;2023-07-20T11:04:43;8.30;;;5.78;;
75649;SDS011;64245;51.282;22.494;2023-07-20T11:07:14;8.35;;;5.50;;
75649;SDS011;64245;51.282;22.494;2023-07-20T11:09:41;8.27;;;5.57;;
75649;SDS011;64245;51.282;22.494;2023-07-20T11:14:42;7.13;;;4.75;;
75649;SDS011;64245;51.282;22.494;2023-07-20T11:17:15;5.95;;;4.75;;
75649;SDS011;64245;51.282;22.494;2023-07-20T11:19:41;7.90;;;5.05;;
75649;SDS011;64245;51.282;22.494;2023-07-20T11:22:07;7.35;;;4.13;;
75649;SDS011;64245;51.282;22.494;2023-07-20T11:24:40;5.40;;;3.78;;
75649;SDS011;64245;51.282;22.494;2023-07-20T11:27:06;5.63;;;3.75;;
75649;SDS011;64245;51.282;22.494;2023-07-20T11:29:31;4.70;;;3.63;;
75649;SDS011;64245;51.282;22.494;2023-07-20T11:31:57;4.85;;;2.90;;
75649;SDS011;64245;51.282;22.494;2023-07-20T11:34:26;5.13;;;2.72;;
75649;SDS011;64245;51.282;22.494;2023-07-20T11:36:52;3.58;;;2.63;;
75649;SDS011;64245;51.282;22.494;2023-07-20T11:39:19;3.15;;;2.08;;
75649;SDS011;64245;51.282;22.494;2023-07-20T11:41:47;4.10;;;2.30;;
75649;SDS011;64245;51.282;22.494;2023-07-20T11:44:18;3.72;;;2.33;;
75649;SDS011;64245;51.282;22.494;2023-07-20T11:46:45;4.25;;;2.47;;
75649;SDS011;64245;51.282;22.494;2023-07-20T11:49:10;3.08;;;2.40;;
75649;SDS011;64245;51.282;22.494;2023-07-20T11:51:37;3.33;;;2.42;;
75649;SDS011;64245;51.282;22.494;2023-07-20T11:54:05;5.40;;;4.00;;
75649;SDS011;64245;51.282;22.494;2023-07-20T11:56:32;4.63;;;2.92;;
75649;SDS011;64245;51.282;22.494;2023-07-20T11:58:58;4.88;;;2.90;;
75649;SDS011;64245;51.282;22.494;2023-07-20T12:01:26;4.03;;;3.40;;
75649;SDS011;64245;51.282;22.494;2023-07-20T12:04:00;5.97;;;2.92;;
75649;SDS011;64245;51.282;22.494;2023-07-20T12:06:29;4.15;;;3.38;;
75649;SDS011;64245;51.282;22.494;2023-07-20T12:08:56;4.50;;;2.88;;
75649;SDS011;64245;51.282;22.494;2023-07-20T12:11:36;5.82;;;3.00;;
75649;SDS011;64245;51.282;22.494;2023-07-20T12:14:03;3.63;;;2.55;;
75649;SDS011;64245;51.282;22.494;2023-07-20T12:16:32;5.10;;;2.92;;
75649;SDS011;64245;51.282;22.494;2023-07-20T12:21:28;2.85;;;2.20;;
75649;SDS011;64245;51.282;22.494;2023-07-20T12:23:55;3.97;;;1.92;;
75649;SDS011;64245;51.282;22.494;2023-07-20T12:26:22;3.05;;;1.88;;
75649;SDS011;64245;51.282;22.494;2023-07-20T12:28:49;3.83;;;2.45;;
75649;SDS011;64245;51.282;22.494;2023-07-20T12:31:15;3.42;;;2.10;;
75649;SDS011;64245;51.282;22.494;2023-07-20T12:33:40;3.45;;;2.08;;
75649;SDS011;64245;51.282;22.494;2023-07-20T12:36:07;3.22;;;1.63;;
75649;SDS011;64245;51.282;22.494;2023-07-20T12:38:34;3.35;;;1.92;;
75649;SDS011;64245;51.282;22.494;2023-07-20T12:41:00;3.55;;;1.67;;
75649;SDS011;64245;51.282;22.494;2023-07-20T12:43:26;3.33;;;1.80;;
75649;SDS011;64245;51.282;22.494;2023-07-20T12:45:53;2.58;;;1.70;;
75649;SDS011;64245;51.282;22.494;2023-07-20T12:48:18;3.53;;;1.70;;
75649;SDS011;64245;51.282;22.494;2023-07-20T12:50:44;2.55;;;1.85;;
75649;SDS011;64245;51.282;22.494;2023-07-20T12:53:10;3.13;;;1.55;;
75649;SDS011;64245;51.282;22.494;2023-07-20T12:55:37;3.13;;;2.10;;
75649;SDS011;64245;51.282;22.494;2023-07-20T12:58:03;2.13;;;1.92;;
75649;SDS011;64245;51.282;22.494;2023-07-20T13:00:29;2.03;;;1.67;;
75649;SDS011;64245;51.282;22.494;2023-07-20T13:02:55;6.07;;;2.25;;
75649;SDS011;64245;51.282;22.494;2023-07-20T13:05:21;2.95;;;1.75;;
75649;SDS011;64245;51.282;22.494;2023-07-20T13:07:46;2.70;;;1.92;;
75649;SDS011;64245;51.282;22.494;2023-07-20T13:10:12;3.05;;;1.23;;
75649;SDS011;64245;51.282;22.494;2023-07-20T13:12:38;5.93;;;1.60;;
75649;SDS011;64245;51.282;22.494;2023-07-20T13:15:07;4.00;;;1.80;;
75649;SDS011;64245;51.282;22.494;2023-07-20T13:17:35;3.03;;;1.52;;
75649;SDS011;64245;51.282;22.494;2023-07-20T13:20:02;2.67;;;1.38;;
75649;SDS011;64245;51.282;22.494;2023-07-20T13:22:30;3.53;;;1.38;;
75649;SDS011;64245;51.282;22.494;2023-07-20T13:24:56;1.48;;;1.30;;
75649;SDS011;64245;51.282;22.494;2023-07-20T13:27:21;2.35;;;1.20;;
75649;SDS011;64245;51.282;22.494;2023-07-20T13:29:47;2.80;;;1.10;;
75649;SDS011;64245;51.282;22.494;2023-07-20T13:32:13;1.80;;;1.30;;
75649;SDS011;64245;51.282;22.494;2023-07-20T13:34:43;4.20;;;1.25;;
75649;SDS011;64245;51.282;22.494;2023-07-20T13:37:10;1.67;;;1.50;;
75649;SDS011;64245;51.282;22.494;2023-07-20T13:39:36;2.13;;;1.45;;
75649;SDS011;64245;51.282;22.494;2023-07-20T13:42:02;2.88;;;1.40;;
75649;SDS011;64245;51.282;22.494;2023-07-20T13:44:31;1.63;;;1.30;;
75649;SDS011;64245;51.282;22.494;2023-07-20T13:46:57;2.15;;;1.35;;
75649;SDS011;64245;51.282;22.494;2023-07-20T13:49:23;1.27;;;1.10;;
75649;SDS011;64245;51.282;22.494;2023-07-20T13:51:49;1.95;;;1.60;;
75649;SDS011;64245;51.282;22.494;2023-07-20T13:54:15;2.35;;;1.50;;
75649;SDS011;64245;51.282;22.494;2023-07-20T13:56:41;3.90;;;1.90;;
75649;SDS011;64245;51.282;22.494;2023-07-20T13:59:07;2.50;;;2.10;;
75649;SDS011;64245;51.282;22.494;2023-07-20T14:01:32;2.20;;;1.83;;
75649;SDS011;64245;51.282;22.494;2023-07-20T14:03:59;2.05;;;1.70;;
75649;SDS011;64245;51.282;22.494;2023-07-20T14:06:25;2.22;;;1.80;;
75649;SDS011;64245;51.282;22.494;2023-07-20T14:08:53;2.17;;;1.98;;
75649;SDS011;64245;51.282;22.494;2023-07-20T14:11:18;2.83;;;1.85;;
75649;SDS011;64245;51.282;22.494;2023-07-20T14:13:44;2.33;;;1.95;;
75649;SDS011;64245;51.282;22.494;2023-07-20T14:16:10;1.92;;;1.52;;
75649;SDS011;64245;51.282;22.494;2023-07-20T14:18:36;2.97;;;2.30;;
75649;SDS011;64245;51.282;22.494;2023-07-20T14:21:02;2.80;;;1.73;;
75649;SDS011;64245;51.282;22.494;2023-07-20T14:23:28;3.33;;;2.35;;
75649;SDS011;64245;51.282;22.494;2023-07-20T14:25:54;2.30;;;1.90;;
75649;SDS011;64245;51.282;22.494;2023-07-20T14:28:20;3.78;;;2.22;;
75649;SDS011;64245;51.282;22.494;2023-07-20T14:30:46;3.00;;;1.80;;
75649;SDS011;64245;51.282;22.494;2023-07-20T14:33:12;2.60;;;1.73;;
75649;SDS011;64245;51.282;22.494;2023-07-20T14:35:38;3.42;;;2.15;;
75649;SDS011;64245;51.282;22.494;2023-07-20T14:38:04;2.65;;;1.95;;
75649;SDS011;64245;51.282;22.494;2023-07-20T14:40:29;2.83;;;1.90;;
75649;SDS011;64245;51.282;22.494;2023-07-20T14:42:55;2.63;;;2.08;;
75649;SDS011;64245;51.282;22.494;2023-07-20T14:45:21;2.00;;;1.80;;
75649;SDS011;64245;51.282;22.494;2023-07-20T14:47:47;2.35;;;1.70;;
75649;SDS011;64245;51.282;22.494;2023-07-20T14:50:19;2.30;;;1.55;;
75649;SDS011;64245;51.282;22.494;2023-07-20T14:52:45;4.25;;;2.05;;
75649;SDS011;64245;51.282;22.494;2023-07-20T14:55:11;2.05;;;1.85;;